Time;durP1;ratioP1;P1;durP2;ratioP2;P2;SDS_P1;SDS_P2;PMS_P1;PMS_P2;Temp;Humidity;BMP_temperature;BMP_pressure;BME280_temperature;BME280_humidity;BME280_pressure;Samples;Min_cycle;Max_cycle;Signal;HPM_P1;HPM_P2
2022/04/06 00:00:41;;;;;;;1.88;0.98;;;;;;;19.17;45.54;100296.72;5007300;28;20032;-61
2022/04/06 00:03:07;;;;;;;2.38;1.30;;;;;;;19.16;45.53;100292.47;5007349;28;20266;-61
2022/04/06 00:05:32;;;;;;;3.58;1.00;;;;;;;19.15;45.46;100291.66;5006060;28;20132;-61
2022/04/06 00:07:58;;;;;;;4.40;1.65;;;;;;;19.14;45.39;100291.84;5007791;28;20439;-61
2022/04/06 00:10:24;;;;;;;2.65;1.70;;;;;;;19.14;45.41;100291.84;5009533;28;20176;-61
2022/04/06 00:12:49;;;;;;;1.90;1.10;;;;;;;19.13;45.37;100288.41;5006627;28;20046;-61
2022/04/06 00:15:14;;;;;;;2.13;1.23;;;;;;;19.14;45.48;100290.03;5006859;28;20069;-61
2022/04/06 00:17:40;;;;;;;2.95;1.23;;;;;;;19.13;45.46;100287.59;5007658;28;20032;-61
2022/04/06 00:20:07;;;;;;;2.75;1.38;;;;;;;19.14;45.32;100286.56;5006671;28;20037;-61
2022/04/06 00:22:33;;;;;;;3.08;1.58;;;;;;;19.13;45.40;100288.41;5008953;28;20037;-61
2022/04/06 00:24:59;;;;;;;3.70;1.40;;;;;;;19.14;45.30;100299.78;5008328;28;20044;-61
2022/04/06 00:27:24;;;;;;;2.88;1.30;;;;;;;19.12;45.26;100285.97;5007888;28;20482;-61
2022/04/06 00:29:50;;;;;;;2.20;1.35;;;;;;;19.12;45.43;100285.97;5009086;28;20058;-61
2022/04/06 00:32:15;;;;;;;3.88;1.27;;;;;;;19.11;45.30;100274.59;5002187;28;20478;-61
2022/04/06 00:37:25;;;;;;;3.47;1.42;;;;;;;19.09;45.49;100284.53;5002909;28;20048;-61
2022/04/06 00:39:50;;;;;;;2.72;1.27;;;;;;;19.09;45.43;100283.72;5008959;28;20378;-61
2022/04/06 00:42:16;;;;;;;2.40;0.95;;;;;;;19.07;45.49;100281.28;5008541;28;20030;-61
2022/04/06 00:44:41;;;;;;;1.35;1.13;;;;;;;19.08;45.27;100284.75;5007499;28;20033;-62
2022/04/06 00:47:07;;;;;;;2.10;1.00;;;;;;;19.08;45.38;100274.19;5008150;28;20490;-61
2022/04/06 00:49:33;;;;;;;1.92;1.08;;;;;;;19.08;45.22;100282.09;5024073;28;20034;-61
2022/04/06 00:52:02;;;;;;;1.98;1.13;;;;;;;19.07;45.39;100283.13;4996728;28;20405;-61
2022/04/06 00:54:29;;;;;;;2.47;1.00;;;;;;;19.07;45.22;100285.75;5005923;28;20033;-62
2022/04/06 00:56:56;;;;;;;1.60;0.88;;;;;;;19.06;45.43;100286.78;5007963;28;20044;-61
2022/04/06 00:59:22;;;;;;;2.13;1.10;;;;;;;19.06;45.25;100282.31;5007517;28;20449;-61
2022/04/06 01:01:50;;;;;;;2.50;1.08;;;;;;;19.07;45.30;100283.13;5007287;28;20026;-60
2022/04/06 01:04:17;;;;;;;2.60;1.40;;;;;;;19.06;45.36;100277.03;4992664;28;20066;-61
2022/04/06 01:06:47;;;;;;;2.10;1.10;;;;;;;19.08;45.26;100284.75;5007352;28;20041;-61
2022/04/06 01:09:17;;;;;;;1.50;0.80;;;;;;;19.07;45.28;100280.50;5006419;28;20049;-61
2022/04/06 01:11:47;;;;;;;1.77;1.10;;;;;;;19.06;45.34;100284.94;5003595;28;20522;-61
2022/04/06 01:14:13;;;;;;;3.70;1.58;;;;;;;19.07;45.21;100275.19;5022356;28;20052;-61
2022/04/06 01:16:40;;;;;;;1.83;1.50;;;;;;;19.07;45.19;100267.28;5007408;28;20038;-61
2022/04/06 01:19:06;;;;;;;2.00;1.25;;;;;;;19.07;45.34;100272.56;5006956;28;20030;-60
2022/04/06 01:21:31;;;;;;;2.05;0.73;;;;;;;19.07;45.12;100270.72;5006438;28;20453;-60
2022/04/06 01:23:57;;;;;;;1.67;1.08;;;;;;;19.06;45.20;100276.22;5006461;28;20033;-60
2022/04/06 01:26:24;;;;;;;2.90;1.17;;;;;;;19.06;45.25;100268.31;5005684;28;20057;-60
2022/04/06 01:28:49;;;;;;;1.67;1.00;;;;;;;19.06;45.03;100276.22;5001090;28;20030;-61
2022/04/06 01:31:15;;;;;;;1.90;1.42;;;;;;;19.05;45.15;100275.41;5006039;28;20022;-61
2022/04/06 01:33:41;;;;;;;2.50;1.30;;;;;;;19.04;45.22;100272.97;5006963;28;20040;-61
2022/04/06 01:36:06;;;;;;;2.08;1.10;;;;;;;19.04;45.31;100272.97;5006659;28;20481;-61
2022/04/06 01:38:32;;;;;;;2.38;1.35;;;;;;;19.03;45.12;100272.16;5007753;28;20053;-60
2022/04/06 01:40:57;;;;;;;1.80;1.13;;;;;;;19.04;45.16;100271.13;4992568;28;20429;-60
2022/04/06 01:43:23;;;;;;;2.70;1.60;;;;;;;19.03;45.22;100266.06;5005409;28;20072;-60
2022/04/06 01:45:49;;;;;;;2.40;1.00;;;;;;;19.02;45.17;100259.97;5006517;28;20513;-60
2022/04/06 01:48:15;;;;;;;2.10;1.63;;;;;;;19.01;45.02;100266.25;5005284;28;20040;-61
2022/04/06 01:53:25;;;;;;;1.77;1.20;;;;;;;18.98;45.20;100266.69;5007293;28;20112;-61
2022/04/06 01:55:51;;;;;;;1.80;1.10;;;;;;;18.99;45.15;100264.84;5006717;28;20056;-61
2022/04/06 01:58:17;;;;;;;1.50;0.80;;;;;;;18.97;45.13;100262.41;5005949;28;20026;-61
2022/04/06 02:00:42;;;;;;;2.80;1.13;;;;;;;18.98;45.21;100268.50;5006631;28;20435;-61
2022/04/06 02:03:08;;;;;;;2.45;1.27;;;;;;;18.97;45.15;100266.88;5002344;28;20045;-61
2022/04/06 02:05:34;;;;;;;1.75;1.10;;;;;;;18.96;45.29;100259.97;5005114;28;20038;-61
2022/04/06 02:08:00;;;;;;;3.85;1.42;;;;;;;18.95;45.14;100258.34;5006278;28;20026;-61
2022/04/06 02:13:02;;;;;;;2.42;1.13;;;;;;;18.93;45.24;100250.63;5064324;23;20059;-47
2022/04/06 02:15:27;;;;;;;1.45;0.90;;;;;;;18.93;45.22;100245.34;4985747;28;20497;-49
2022/04/06 02:17:54;;;;;;;1.65;1.08;;;;;;;18.92;45.14;100242.91;4974971;28;20027;-44
2022/04/06 02:20:20;;;;;;;1.80;0.70;;;;;;;18.93;45.17;100252.47;4974377;28;20084;-51
2022/04/06 02:22:46;;;;;;;1.67;0.90;;;;;;;18.92;45.29;100245.56;4987005;28;20285;-51
2022/04/06 02:25:15;;;;;;;1.77;1.15;;;;;;;18.91;45.24;100247.38;4987177;28;20510;-50
2022/04/06 02:27:49;;;;;;;1.85;1.00;;;;;;;18.88;45.11;100240.72;4977096;28;20030;-46
2022/04/06 02:30:15;;;;;;;1.73;1.13;;;;;;;18.89;45.15;100244.97;4973339;28;20258;-50
2022/04/06 02:32:41;;;;;;;2.40;1.30;;;;;;;18.89;45.09;100237.06;4971530;28;20486;-50
2022/04/06 02:35:07;;;;;;;2.25;1.20;;;;;;;18.89;45.17;100241.53;4971390;28;20034;-51
2022/04/06 02:37:32;;;;;;;1.67;1.00;;;;;;;18.89;45.14;100242.34;4986500;28;20465;-52
2022/04/06 02:39:58;;;;;;;1.75;1.17;;;;;;;18.89;45.15;100234.41;4986047;28;20022;-52
2022/04/06 02:42:23;;;;;;;1.42;0.98;;;;;;;18.88;45.17;100237.25;4987388;28;20022;-50
2022/04/06 02:44:49;;;;;;;1.77;0.90;;;;;;;18.87;45.11;100231.16;4985763;28;20137;-52
2022/04/06 02:47:14;;;;;;;2.60;1.13;;;;;;;18.88;45.08;100238.06;4987908;28;20342;-47
2022/04/06 02:49:40;;;;;;;3.42;1.45;;;;;;;18.88;45.16;100230.16;4985517;28;20641;-48
2022/04/06 02:52:07;;;;;;;3.28;1.30;;;;;;;18.88;45.21;100231.97;4973151;28;20548;-50
2022/04/06 02:54:32;;;;;;;2.53;1.38;;;;;;;18.88;45.31;100222.22;4985143;28;20041;-46
2022/04/06 02:56:58;;;;;;;1.75;1.08;;;;;;;18.86;45.43;100224.25;4974915;28;20030;-49
2022/04/06 02:59:23;;;;;;;2.75;1.10;;;;;;;18.84;45.51;100215.75;4986458;28;20050;-47
2022/04/06 03:01:49;;;;;;;1.58;0.98;;;;;;;18.83;45.53;100216.75;4987016;28;20546;-44
2022/04/06 03:04:14;;;;;;;2.63;0.70;;;;;;;18.83;45.47;100219.38;4987471;28;20030;-45
2022/04/06 03:06:40;;;;;;;1.08;0.60;;;;;;;18.83;45.44;100210.66;4984721;28;20133;-45
2022/04/06 03:09:07;;;;;;;3.50;0.88;;;;;;;18.82;45.45;100207.22;4986921;28;20029;-46
2022/04/06 03:11:33;;;;;;;1.65;0.85;;;;;;;18.82;45.47;100204.56;4985243;28;20417;-47
2022/04/06 03:13:59;;;;;;;1.77;1.08;;;;;;;18.83;45.44;100202.75;4987332;28;20030;-44
2022/04/06 03:16:24;;;;;;;1.45;1.02;;;;;;;18.83;45.44;100203.56;4985321;28;20130;-48
2022/04/06 03:18:49;;;;;;;1.90;0.80;;;;;;;18.84;45.39;100199.91;4987213;28;20026;-47
2022/04/06 03:21:15;;;;;;;3.13;1.10;;;;;;;18.85;45.38;100206.00;4985453;28;20038;-44
2022/04/06 03:23:40;;;;;;;1.40;0.93;;;;;;;18.85;45.43;100198.88;4988430;28;20034;-46
2022/04/06 03:26:06;;;;;;;1.52;0.77;;;;;;;18.84;45.49;100191.97;4984260;28;20201;-50
2022/04/06 03:28:31;;;;;;;1.73;1.02;;;;;;;18.85;45.38;100187.53;4971489;28;20023;-47
2022/04/06 03:30:57;;;;;;;2.67;0.90;;;;;;;18.86;45.48;100189.13;4986385;28;20031;-49
2022/04/06 03:33:22;;;;;;;2.15;1.00;;;;;;;18.85;45.44;100190.97;4990958;28;20085;-46
2022/04/06 03:35:48;;;;;;;1.30;0.77;;;;;;;18.85;45.35;100190.97;4990352;28;20038;-45
2022/04/06 03:38:13;;;;;;;2.28;1.20;;;;;;;18.86;45.20;100191.78;4989486;28;20505;-47
2022/04/06 03:40:39;;;;;;;1.40;0.88;;;;;;;18.86;45.33;100191.78;4984045;28;20281;-44
2022/04/06 03:43:05;;;;;;;2.50;1.02;;;;;;;18.84;45.26;100184.06;4990624;28;20438;-47
2022/04/06 03:45:30;;;;;;;1.48;1.02;;;;;;;18.85;45.19;100184.88;4988143;28;20125;-50
2022/04/06 03:47:55;;;;;;;1.42;1.20;;;;;;;18.85;45.14;100182.25;4990698;28;20093;-45
2022/04/06 03:50:21;;;;;;;3.10;1.00;;;;;;;18.84;45.15;100191.97;4988819;28;20242;-44
2022/04/06 03:52:46;;;;;;;1.73;1.08;;;;;;;18.84;45.30;100186.69;4989697;28;20141;-44
2022/04/06 03:55:12;;;;;;;1.52;0.80;;;;;;;18.83;45.13;100182.44;4989718;28;20082;-46
2022/04/06 03:57:38;;;;;;;1.58;0.90;;;;;;;18.84;45.31;100188.53;4987491;28;20026;-48
2022/04/06 04:00:06;;;;;;;1.05;0.65;;;;;;;18.84;45.22;100177.97;4982667;28;20538;-48
2022/04/06 04:02:31;;;;;;;1.33;0.80;;;;;;;18.83;45.37;100181.63;4972715;28;20333;-47
2022/04/06 04:04:57;;;;;;;2.10;0.80;;;;;;;18.82;45.38;100172.91;4990454;28;20351;-44
2022/04/06 04:07:23;;;;;;;2.75;1.13;;;;;;;18.81;45.35;100181.84;4989660;28;20058;-48
2022/04/06 04:09:50;;;;;;;1.83;0.70;;;;;;;18.81;45.28;100179.19;4984980;28;20031;-46
2022/04/06 04:12:16;;;;;;;1.40;0.90;;;;;;;18.80;45.38;100169.66;4970585;28;20185;-48
2022/04/06 04:14:41;;;;;;;1.92;0.80;;;;;;;18.80;45.38;100174.13;4989703;28;20084;-50
2022/04/06 04:17:07;;;;;;;2.50;0.88;;;;;;;18.78;45.43;100174.31;4989669;28;20377;-48
2022/04/06 04:19:32;;;;;;;2.53;0.90;;;;;;;18.77;45.22;100172.69;4979730;28;20348;-46
2022/04/06 04:21:58;;;;;;;2.55;0.60;;;;;;;18.76;45.58;100176.34;4970686;28;20037;-46
2022/04/06 04:24:23;;;;;;;1.55;0.73;;;;;;;18.74;45.60;100172.28;4983713;28;20030;-44
2022/04/06 04:26:49;;;;;;;2.42;0.80;;;;;;;18.72;45.78;100169.84;4989033;28;20439;-46
2022/04/06 04:29:15;;;;;;;3.17;0.90;;;;;;;18.74;46.21;100167.81;4989009;28;20488;-50
2022/04/06 04:31:41;;;;;;;4.25;1.23;;;;;;;18.78;46.85;100170.88;4981449;28;20023;-51
2022/04/06 04:34:06;;;;;;;5.22;3.38;;;;;;;18.81;48.92;100166.00;4987880;28;20497;-48
2022/04/06 04:36:32;;;;;;;3.30;2.33;;;;;;;18.83;48.85;100169.25;4988117;28;20074;-52
2022/04/06 04:38:57;;;;;;;2.40;1.48;;;;;;;18.82;47.67;100169.44;4987548;28;20057;-50
2022/04/06 04:41:23;;;;;;;3.15;1.40;;;;;;;18.79;47.07;100178.59;4981490;28;20425;-48
2022/04/06 04:43:50;;;;;;;5.03;1.35;;;;;;;18.78;47.50;100176.97;4988987;28;20050;-43
2022/04/06 04:46:17;;;;;;;3.92;0.90;;;;;;;18.76;47.68;100176.34;4987656;28;20478;-46
2022/04/06 04:48:42;;;;;;;2.75;1.10;;;;;;;18.73;47.80;100182.03;4988621;28;20477;-52
2022/04/06 04:51:08;;;;;;;5.13;0.95;;;;;;;18.70;47.78;100177.16;4982157;28;20053;-50
2022/04/06 04:53:33;;;;;;;2.95;1.00;;;;;;;18.69;47.66;100180.81;4988586;28;20426;-46
2022/04/06 04:55:59;;;;;;;5.22;1.23;;;;;;;18.70;47.45;100181.63;4988463;28;20057;-51
2022/04/06 04:58:26;;;;;;;2.63;0.85;;;;;;;18.72;47.32;100184.88;4988770;28;20425;-52
2022/04/06 05:00:54;;;;;;;3.95;1.33;;;;;;;18.72;47.02;100188.34;4987696;28;20061;-51
2022/04/06 05:03:19;;;;;;;2.67;0.80;;;;;;;18.72;46.98;100184.88;4987191;28;20030;-54
2022/04/06 05:05:48;;;;;;;2.80;1.10;;;;;;;18.72;46.75;100180.41;4989543;28;20352;-53
2022/04/06 05:08:14;;;;;;;1.92;0.70;;;;;;;18.72;46.50;100185.69;4987495;28;20155;-51
2022/04/06 05:10:39;;;;;;;2.25;0.75;;;;;;;18.72;46.31;100185.69;4985276;28;20195;-51
2022/04/06 05:13:05;;;;;;;3.05;1.55;;;;;;;18.71;46.38;100188.53;4969803;28;20051;-45
2022/04/06 05:15:31;;;;;;;5.18;0.98;;;;;;;18.72;46.13;100190.16;5001920;28;20234;-48
2022/04/06 05:17:56;;;;;;;2.90;0.90;;;;;;;18.72;46.24;100190.16;4987812;28;20381;-43
2022/04/06 05:20:22;;;;;;;1.40;0.93;;;;;;;18.70;46.14;100190.38;4988002;28;20116;-47
2022/04/06 05:22:47;;;;;;;3.88;0.93;;;;;;;18.70;46.06;100200.09;4969593;28;20039;-48
2022/04/06 05:25:13;;;;;;;4.28;1.20;;;;;;;18.69;46.04;100199.28;4976795;28;20137;-49
2022/04/06 05:27:49;;;;;;;1.75;0.85;;;;;;;18.66;45.88;100204.16;4988843;28;20034;-51
2022/04/06 05:30:16;;;;;;;4.25;0.75;;;;;;;18.67;46.10;100205.78;4987612;28;20576;-53
2022/04/06 05:32:43;;;;;;;3.72;1.00;;;;;;;18.67;45.97;100206.59;4987331;28;20322;-53
2022/04/06 05:35:09;;;;;;;5.30;1.00;;;;;;;18.67;45.97;100213.69;4988426;28;20053;-53
2022/04/06 05:37:39;;;;;;;2.92;1.10;;;;;;;18.65;45.99;100208.63;4987496;28;20529;-50
2022/04/06 05:40:06;;;;;;;2.38;0.73;;;;;;;18.66;45.96;100218.16;4987852;28;20514;-49
2022/04/06 05:42:32;;;;;;;2.53;1.00;;;;;;;18.66;45.97;100212.91;4988503;28;20054;-47
2022/04/06 05:44:57;;;;;;;2.58;0.80;;;;;;;18.66;45.89;100215.53;4987270;28;20034;-44
2022/04/06 05:47:24;;;;;;;1.35;0.90;;;;;;;18.68;45.90;100215.31;4985718;28;20030;-52
2022/04/06 05:49:49;;;;;;;3.75;1.17;;;;;;;18.67;45.83;100214.53;4988368;28;20173;-51
2022/04/06 05:52:15;;;;;;;1.95;1.08;;;;;;;18.67;46.00;100214.53;4987642;28;20105;-49
2022/04/06 05:54:42;;;;;;;2.10;1.15;;;;;;;18.67;45.96;100211.88;4987767;28;20487;-42
2022/04/06 05:57:07;;;;;;;1.55;1.00;;;;;;;18.67;45.80;100219.78;4988370;28;20037;-51
2022/04/06 05:59:33;;;;;;;2.55;1.00;;;;;;;18.68;45.73;100223.25;4987244;28;20049;-50
2022/04/06 06:01:58;;;;;;;3.40;0.70;;;;;;;18.67;45.77;100217.16;4987077;28;20028;-47
2022/04/06 06:04:24;;;;;;;3.65;1.00;;;;;;;18.67;45.77;100217.16;4983623;28;20394;-50
2022/04/06 06:06:49;;;;;;;2.22;0.95;;;;;;;18.66;45.70;100220.81;4978218;28;20077;-49
2022/04/06 06:09:15;;;;;;;2.15;0.90;;;;;;;18.67;45.82;100219.78;4968866;28;20386;-50
2022/04/06 06:11:41;;;;;;;1.55;0.60;;;;;;;18.66;45.69;100218.16;4973518;28;20050;-45
2022/04/06 06:14:07;;;;;;;2.15;0.93;;;;;;;18.66;45.77;100212.91;4987994;28;20500;-45
2022/04/06 06:16:33;;;;;;;2.50;0.80;;;;;;;18.67;45.80;100219.78;4988088;28;20137;-47
2022/04/06 06:18:58;;;;;;;1.35;0.80;;;;;;;18.67;45.73;100216.34;4988035;28;20138;-44
2022/04/06 06:21:26;;;;;;;1.45;0.77;;;;;;;18.68;45.72;100215.31;4987769;28;20334;-54
2022/04/06 06:23:53;;;;;;;2.70;0.65;;;;;;;18.72;45.62;100227.91;4987680;28;20444;-50
2022/04/06 06:26:20;;;;;;;1.05;0.63;;;;;;;18.74;45.71;100223.25;4987690;28;20524;-52
2022/04/06 06:28:45;;;;;;;2.00;0.70;;;;;;;18.78;45.59;100232.38;4987062;28;20041;-54
2022/04/06 06:31:11;;;;;;;1.02;0.50;;;;;;;18.80;45.64;100219.81;5001578;28;20030;-50
2022/04/06 06:33:36;;;;;;;1.20;0.52;;;;;;;18.82;45.67;100228.31;4987779;28;20084;-48
2022/04/06 06:36:02;;;;;;;3.22;0.60;;;;;;;18.85;45.61;100229.75;4987381;28;20034;-52
2022/04/06 06:38:27;;;;;;;1.05;0.70;;;;;;;18.89;45.70;100238.88;4982393;28;20150;-54
2022/04/06 06:40:53;;;;;;;0.93;0.50;;;;;;;18.92;45.69;100232.34;4967008;28;20062;-50
2022/04/06 06:43:19;;;;;;;1.20;0.52;;;;;;;18.96;45.65;100236.22;4983060;28;20058;-50
2022/04/06 06:45:44;;;;;;;3.08;0.80;;;;;;;18.99;45.48;100231.34;4985529;28;20044;-49
2022/04/06 06:48:10;;;;;;;2.13;0.60;;;;;;;19.04;45.46;100222.81;4979005;28;20125;-47
2022/04/06 06:50:35;;;;;;;4.00;0.88;;;;;;;19.08;45.42;100224.03;4986262;28;20109;-47
2022/04/06 06:53:01;;;;;;;1.35;0.52;;;;;;;19.13;45.46;100224.22;4985554;28;20058;-52
2022/04/06 06:55:26;;;;;;;2.83;0.80;;;;;;;19.16;45.37;100221.97;4980991;28;20266;-54
2022/04/06 06:57:52;;;;;;;1.65;0.60;;;;;;;19.21;45.40;100222.19;4988242;28;20097;-50
2022/04/06 07:00:18;;;;;;;1.85;0.68;;;;;;;19.25;45.32;100222.56;4983228;28;20193;-47
2022/04/06 07:02:44;;;;;;;4.40;0.60;;;;;;;19.31;45.61;100223.59;4984077;28;20124;-47
2022/04/06 07:05:10;;;;;;;2.00;0.73;;;;;;;19.35;45.81;100217.69;4981284;28;20485;-51
2022/04/06 07:07:52;;;;;;;2.28;0.80;;;;;;;19.41;46.11;100222.09;4983737;28;20038;-50
2022/04/06 07:10:18;;;;;;;1.70;0.88;;;;;;;19.46;46.94;100216.19;4983499;28;20402;-44
2022/04/06 07:12:43;;;;;;;2.25;0.80;;;;;;;19.47;47.17;100213.34;4984113;28;20229;-55
2022/04/06 07:15:09;;;;;;;1.23;0.73;;;;;;;19.45;47.27;100217.22;4985197;28;20043;-47
2022/04/06 07:17:35;;;;;;;2.92;0.60;;;;;;;19.45;47.41;100207.47;4987143;28;20406;-48
2022/04/06 07:20:00;;;;;;;3.72;0.50;;;;;;;19.44;47.53;100216.41;4986941;28;20031;-53
2022/04/06 07:22:25;;;;;;;1.58;0.40;;;;;;;19.44;47.61;100221.69;4987287;28;20031;-46
2022/04/06 07:24:51;;;;;;;2.65;0.75;;;;;;;19.44;47.30;100216.41;4987300;28;20498;-57
2022/04/06 07:27:21;;;;;;;1.00;0.50;;;;;;;19.44;47.31;100218.25;4987359;28;20501;-45
2022/04/06 07:29:46;;;;;;;1.60;0.55;;;;;;;19.45;47.26;100217.22;4987038;28;20038;-45
2022/04/06 07:32:12;;;;;;;3.60;0.60;;;;;;;19.45;47.49;100215.38;4985218;28;20037;-54
2022/04/06 07:34:38;;;;;;;0.95;0.50;;;;;;;19.47;47.41;100220.47;4979583;28;20031;-42
2022/04/06 07:37:03;;;;;;;1.17;0.70;;;;;;;19.48;47.17;100211.53;4974998;28;20034;-51
2022/04/06 07:39:29;;;;;;;2.13;0.77;;;;;;;19.50;47.17;100205.00;4985454;28;20100;-50
2022/04/06 07:41:57;;;;;;;3.35;0.60;;;;;;;19.51;47.13;100216.41;4987116;28;20108;-48
2022/04/06 07:44:23;;;;;;;0.90;0.60;;;;;;;19.51;47.13;100217.22;4979584;28;20883;-53
2022/04/06 07:46:49;;;;;;;1.40;0.70;;;;;;;19.51;47.24;100217.22;4984445;28;20042;-50
2022/04/06 07:49:14;;;;;;;4.03;0.82;;;;;;;19.52;47.29;100218.84;4984749;28;20160;-52
2022/04/06 07:51:40;;;;;;;6.15;0.70;;;;;;;19.50;47.19;100212.13;4970081;28;20490;-52
2022/04/06 07:54:06;;;;;;;3.75;0.88;;;;;;;19.49;47.11;100216.59;4984554;28;20509;-53
2022/04/06 07:56:31;;;;;;;3.92;1.15;;;;;;;19.50;47.15;100212.94;4986732;28;20390;-52
2022/04/06 07:58:57;;;;;;;1.33;0.60;;;;;;;19.51;46.90;100217.22;4986606;28;20030;-52
2022/04/06 08:01:22;;;;;;;3.13;0.75;;;;;;;19.51;46.77;100214.59;4987091;28;20032;-49
2022/04/06 08:03:48;;;;;;;2.63;0.55;;;;;;;19.52;46.59;100218.84;4986130;28;20096;-52
2022/04/06 08:06:13;;;;;;;2.85;0.50;;;;;;;19.53;46.75;100209.09;4985735;28;20045;-56
2022/04/06 08:08:39;;;;;;;2.38;0.60;;;;;;;19.53;46.71;100212.56;4997409;28;20454;-48
2022/04/06 08:11:05;;;;;;;2.65;0.55;;;;;;;19.55;46.57;100207.88;4991271;28;20027;-55
2022/04/06 08:13:32;;;;;;;1.10;0.40;;;;;;;19.54;46.31;100208.88;4995767;28;20081;-56
2022/04/06 08:15:58;;;;;;;3.97;0.50;;;;;;;19.57;46.40;100212.13;4985500;28;20034;-53
2022/04/06 08:18:24;;;;;;;2.65;0.70;;;;;;;19.57;46.63;100212.94;4999776;28;20308;-48
2022/04/06 08:20:50;;;;;;;1.17;0.60;;;;;;;19.64;46.67;100210.28;5001359;28;20287;-45
2022/04/06 08:23:17;;;;;;;2.38;0.50;;;;;;;19.66;46.63;100216.16;4987104;28;20335;-49
2022/04/06 08:25:43;;;;;;;2.75;0.70;;;;;;;19.62;46.94;100222.88;4992269;28;20509;-47
2022/04/06 08:28:10;;;;;;;4.00;1.17;;;;;;;19.59;46.92;100224.13;4987372;28;20409;-51
2022/04/06 08:30:40;;;;;;;3.28;1.90;;;;;;;19.56;47.00;100219.25;4988845;28;20492;-49
2022/04/06 08:33:06;;;;;;;9.45;2.30;;;;;;;19.53;46.91;100220.47;4988365;28;20037;-47
2022/04/06 08:35:32;;;;;;;3.22;2.22;;;;;;;19.52;46.67;100221.50;4982041;28;20041;-49
2022/04/06 08:37:57;;;;;;;4.15;2.05;;;;;;;19.51;46.43;100219.88;4989637;28;20429;-47
2022/04/06 08:40:23;;;;;;;4.20;1.98;;;;;;;19.50;46.35;100215.56;4989933;28;20054;-49
2022/04/06 08:42:49;;;;;;;1.98;1.42;;;;;;;19.50;46.08;100210.28;4989985;28;20420;-50
2022/04/06 08:45:16;;;;;;;2.97;1.77;;;;;;;19.50;46.09;100212.13;4989811;28;20422;-52
2022/04/06 08:47:44;;;;;;;3.15;2.00;;;;;;;19.48;46.04;100212.34;4989582;28;20042;-53
2022/04/06 08:50:10;;;;;;;2.83;2.05;;;;;;;19.48;46.08;100217.63;4989795;28;20394;-47
2022/04/06 08:52:35;;;;;;;6.03;2.05;;;;;;;19.47;45.92;100210.72;4989823;28;20034;-49
2022/04/06 08:55:01;;;;;;;3.72;1.75;;;;;;;19.47;45.86;100212.53;4989365;28;20018;-48
2022/04/06 08:57:27;;;;;;;4.93;1.80;;;;;;;19.45;45.80;100218.03;4989900;28;20191;-47
2022/04/06 08:59:54;;;;;;;4.68;1.40;;;;;;;19.42;45.68;100215.81;4989479;28;20454;-53
2022/04/06 09:02:20;;;;;;;2.17;1.30;;;;;;;19.41;45.71;100211.53;4989473;28;20109;-51
2022/04/06 09:04:54;;;;;;;3.92;1.38;;;;;;;19.38;45.73;100211.94;4989322;28;20543;-51
2022/04/06 09:07:21;;;;;;;2.63;1.33;;;;;;;19.38;46.11;100219.06;4989668;28;20429;-50
2022/04/06 09:09:54;;;;;;;3.88;1.70;;;;;;;19.38;46.00;100216.41;4989413;28;20082;-54
2022/04/06 09:12:22;;;;;;;3.20;2.30;;;;;;;19.40;45.78;100220.47;4989089;28;20148;-52
2022/04/06 09:15:01;;;;;;;4.15;2.53;;;;;;;19.40;45.51;100215.19;4973475;28;20090;-49
2022/04/06 09:17:27;;;;;;;4.60;1.70;;;;;;;19.38;45.21;100217.22;4983165;28;20037;-51
2022/04/06 09:19:53;;;;;;;2.53;1.65;;;;;;;19.38;45.16;100217.22;4969936;28;20134;-49
2022/04/06 09:22:20;;;;;;;3.47;1.90;;;;;;;19.39;45.11;100213.56;4969637;28;20176;-56
2022/04/06 09:24:55;;;;;;;3.05;2.30;;;;;;;19.35;44.95;100212.41;4969811;28;20042;-54
2022/04/06 09:27:21;;;;;;;8.25;1.80;;;;;;;19.36;44.82;100214.03;4969876;28;20067;-49
2022/04/06 09:29:50;;;;;;;5.22;1.95;;;;;;;19.34;44.91;100210.78;4969809;28;20050;-45
2022/04/06 09:32:15;;;;;;;4.97;1.80;;;;;;;19.35;44.92;100212.41;4968154;28;20031;-47
2022/04/06 09:34:42;;;;;;;2.55;1.70;;;;;;;19.34;44.87;100202.84;4978867;28;20461;-47
2022/04/06 09:37:31;;;;;;;3.15;1.58;;;;;;;19.31;44.63;100203.25;5000617;28;20037;-45
2022/04/06 09:40:07;;;;;;;3.47;1.67;;;;;;;19.33;44.99;100205.69;4987109;28;20029;-52
2022/04/06 09:42:33;;;;;;;1.88;1.05;;;;;;;19.31;44.93;100195.34;4987713;28;20156;-50
2022/04/06 09:47:58;;;;;;;1.63;1.02;;;;;;;19.29;44.83;100200.00;4987654;28;20045;-52
2022/04/06 09:50:29;;;;;;;3.15;1.30;;;;;;;19.31;44.90;100199.81;5002461;28;20050;-48
2022/04/06 09:53:00;;;;;;;2.70;1.60;;;;;;;19.30;44.87;100193.72;4984600;28;20524;-52
2022/04/06 09:55:26;;;;;;;3.17;1.10;;;;;;;19.29;44.92;100186.81;4985715;28;20034;-51
2022/04/06 09:57:55;;;;;;;1.75;1.10;;;;;;;19.29;45.02;100191.28;4989250;28;20039;-51
2022/04/06 10:00:25;;;;;;;2.95;1.05;;;;;;;19.27;45.06;100186.19;4989202;28;20061;-46
2022/04/06 10:03:08;;;;;;;4.43;1.10;;;;;;;19.26;44.81;100186.41;4988633;28;20316;-45
2022/04/06 10:05:35;;;;;;;2.10;0.98;;;;;;;19.30;44.95;100179.69;4988360;28;20125;-52
2022/04/06 10:08:05;;;;;;;2.60;1.15;;;;;;;19.31;44.88;100181.31;4988426;28;20030;-51
2022/04/06 10:10:34;;;;;;;1.50;0.98;;;;;;;19.30;44.94;100177.88;4981098;28;20026;-48
2022/04/06 10:13:04;;;;;;;1.92;1.30;;;;;;;19.31;44.95;100171.56;4968352;28;20043;-49
2022/04/06 10:15:31;;;;;;;3.15;1.00;;;;;;;19.31;44.86;100171.56;4983681;28;20043;-55
2022/04/06 10:17:56;;;;;;;1.50;1.17;;;;;;;19.31;44.80;100160.19;4968803;28;20097;-51
2022/04/06 10:20:35;;;;;;;1.65;1.15;;;;;;;19.31;44.95;100166.28;4968573;28;20061;-48
2022/04/06 10:23:26;;;;;;;3.42;1.05;;;;;;;19.29;44.87;100155.13;4968566;28;20042;-54
2022/04/06 10:26:39;;;;;;;1.23;1.02;;;;;;;19.27;45.03;100158.97;4968375;28;20656;-51
2022/04/06 10:29:05;;;;;;;2.67;1.20;;;;;;;19.27;45.05;100151.06;4946055;29;20047;-47
2022/04/06 10:31:31;;;;;;;2.42;1.33;;;;;;;19.28;44.99;100145.56;4945676;28;20055;-54
2022/04/06 10:34:24;;;;;;;2.20;0.90;;;;;;;19.27;44.78;100141.31;4946002;29;20039;-51
2022/04/06 10:37:03;;;;;;;2.17;1.02;;;;;;;19.27;44.97;100135.22;4945895;29;20493;-53
2022/04/06 10:39:29;;;;;;;1.27;0.93;;;;;;;19.27;45.06;100125.47;4946020;29;20439;-50
2022/04/06 10:42:28;;;;;;;2.20;1.30;;;;;;;19.25;44.98;100127.50;4929752;29;20035;-45
2022/04/06 10:44:53;;;;;;;2.53;1.10;;;;;;;19.26;44.96;100123.84;4945928;29;20131;-43
2022/04/06 10:47:21;;;;;;;1.40;1.02;;;;;;;19.26;44.92;100123.03;4962149;28;20278;-46
2022/04/06 10:50:15;;;;;;;3.42;1.38;;;;;;;19.23;45.03;100116.31;4963732;28;20110;-46
2022/04/06 10:52:42;;;;;;;5.75;1.10;;;;;;;19.23;45.18;100117.13;4963204;28;20083;-56
2022/04/06 10:55:20;;;;;;;2.03;0.98;;;;;;;19.23;45.34;100113.69;4963365;28;20031;-49
2022/04/06 10:58:00;;;;;;;2.20;1.58;;;;;;;19.22;45.60;100109.44;4963922;28;20055;-51
2022/04/06 11:00:26;;;;;;;7.25;1.10;;;;;;;19.23;45.49;100103.13;4963515;28;20035;-50
2022/04/06 11:02:53;;;;;;;2.80;1.10;;;;;;;19.22;45.43;100093.56;4962154;28;20474;-50
2022/04/06 11:05:49;;;;;;;4.80;0.80;;;;;;;19.19;45.52;100086.06;4979411;28;20049;-53
2022/04/06 11:11:45;;;;;;;2.55;1.05;;;;;;;19.18;45.75;100081.81;4974308;28;20113;-48
2022/04/06 11:14:28;;;;;;;2.50;1.20;;;;;;;19.19;45.97;100086.06;4979606;28;20500;-44
2022/04/06 11:16:54;;;;;;;2.72;1.40;;;;;;;19.21;46.03;100079.56;4983625;28;20457;-47
2022/04/06 11:19:20;;;;;;;1.40;0.88;;;;;;;19.22;45.97;100077.72;4984957;28;20072;-43
2022/04/06 11:21:51;;;;;;;3.85;1.10;;;;;;;19.22;46.04;100086.47;4984456;28;20053;-45
2022/04/06 11:24:27;;;;;;;4.30;1.80;;;;;;;19.21;46.34;100068.19;4986464;28;20487;-48
2022/04/06 11:26:53;;;;;;;7.13;3.30;;;;;;;19.23;46.10;100074.06;4978799;28;20049;-49
2022/04/06 11:29:24;;;;;;;4.13;2.50;;;;;;;19.22;46.04;100073.25;4986032;28;20030;-45
2022/04/06 11:32:04;;;;;;;4.32;3.00;;;;;;;19.22;46.19;100072.44;4985855;28;20141;-48
2022/04/06 11:34:37;;;;;;;6.78;4.80;;;;;;;19.21;45.87;100074.28;5000315;28;20034;-46
2022/04/06 11:37:07;;;;;;;5.50;5.00;;;;;;;19.21;45.86;100069.00;4987004;28;20030;-44
2022/04/06 11:39:34;;;;;;;5.78;4.65;;;;;;;19.22;45.73;100069.81;4984668;28;20038;-47